Time;durP1;ratioP1;P1;durP2;ratioP2;P2;SDS_P1;SDS_P2;PMS_P1;PMS_P2;Temp;Humidity;BMP_temperature;BMP_pressure;BME280_temperature;BME280_humidity;BME280_pressure;Samples;Min_cycle;Max_cycle;Signal;HPM_P1;HPM_P2
2022/04/22 00:00:08;;;;;;;1.27;0.60;;;9.80;99.90;;;;;;4914606;29;20755;-87
2022/04/22 00:02:38;;;;;;;0.93;0.60;;;9.90;99.90;;;;;;4941581;29;20476;-86
2022/04/22 00:05:06;;;;;;;1.20;0.57;;;9.60;99.90;;;;;;4923184;29;20485;-87
2022/04/22 00:07:34;;;;;;;0.88;0.50;;;9.70;99.90;;;;;;4916606;29;20423;-87
2022/04/22 00:10:02;;;;;;;2.50;0.60;;;9.80;99.90;;;;;;4904389;29;20486;-86
2022/04/22 00:12:30;;;;;;;0.73;0.57;;;9.80;99.90;;;;;;4920768;29;20760;-86
2022/04/22 00:14:57;;;;;;;1.10;0.50;;;9.90;99.90;;;;;;4920788;29;20922;-86
2022/04/22 00:17:25;;;;;;;0.60;0.55;;;9.90;99.90;;;;;;4937889;29;20405;-87
2022/04/22 00:19:53;;;;;;;0.50;0.50;;;9.80;99.90;;;;;;4920902;29;21059;-86
2022/04/22 00:22:20;;;;;;;0.95;0.50;;;9.80;99.90;;;;;;4920258;29;20457;-87
2022/04/22 00:24:48;;;;;;;1.30;0.70;;;9.70;99.90;;;;;;4920169;29;20398;-87
2022/04/22 00:27:15;;;;;;;1.20;0.60;;;9.60;99.90;;;;;;4938006;29;20398;-86
2022/04/22 00:29:43;;;;;;;0.90;0.60;;;9.70;99.90;;;;;;4920421;29;20397;-85
2022/04/22 00:32:11;;;;;;;1.08;0.77;;;9.70;99.90;;;;;;4937515;29;20407;-86
2022/04/22 00:34:38;;;;;;;1.17;0.60;;;9.60;99.90;;;;;;4937743;29;20989;-87
2022/04/22 00:37:06;;;;;;;2.60;1.00;;;9.50;99.90;;;;;;4937593;29;20401;-84
2022/04/22 00:39:34;;;;;;;2.13;1.20;;;9.40;99.90;;;;;;4937568;29;20417;-85
2022/04/22 00:42:10;;;;;;;2.57;0.90;;;9.40;99.90;;;;;;4948339;29;20755;-87
2022/04/22 00:44:38;;;;;;;0.85;0.70;;;9.40;99.90;;;;;;4955952;29;21012;-85
2022/04/22 00:47:05;;;;;;;0.88;0.70;;;9.60;99.90;;;;;;4918644;29;20555;-87
2022/04/22 00:49:34;;;;;;;0.80;0.70;;;9.60;99.90;;;;;;4934687;29;20419;-86
2022/04/22 00:52:05;;;;;;;1.10;0.70;;;9.70;99.90;;;;;;4934223;29;20398;-87
2022/04/22 00:54:34;;;;;;;0.90;0.50;;;9.70;99.90;;;;;;4919839;29;20401;-86
2022/04/22 00:57:02;;;;;;;1.25;0.60;;;9.70;99.90;;;;;;4905065;29;20412;-87
2022/04/22 00:59:31;;;;;;;0.80;0.52;;;9.70;99.90;;;;;;4938446;29;20860;-87
2022/04/22 01:01:59;;;;;;;1.40;0.60;;;9.50;99.90;;;;;;4937883;29;20404;-87
2022/04/22 01:10:00;;;;;;;1.17;0.80;;;9.60;99.90;;;;;;4955283;29;20424;-87
2022/04/22 01:12:31;;;;;;;0.80;0.70;;;9.40;99.90;;;;;;4954707;28;20392;-87
2022/04/22 01:15:00;;;;;;;0.90;0.80;;;9.40;99.90;;;;;;4937707;29;20435;-86
2022/04/22 01:17:27;;;;;;;0.93;0.67;;;9.40;99.90;;;;;;4955526;29;20392;-86
2022/04/22 01:19:56;;;;;;;0.90;0.70;;;9.40;99.90;;;;;;4900773;29;20415;-86
2022/04/22 01:22:23;;;;;;;1.80;0.80;;;9.40;99.90;;;;;;4915065;29;20923;-85
2022/04/22 01:24:56;;;;;;;1.10;0.90;;;9.40;99.90;;;;;;4919792;29;20807;-86
2022/04/22 01:27:27;;;;;;;1.08;0.80;;;9.40;99.90;;;;;;4936816;29;20424;-86
2022/04/22 01:29:55;;;;;;;2.33;0.90;;;9.30;99.90;;;;;;4919670;29;20460;-87
2022/04/22 01:32:25;;;;;;;1.50;1.00;;;9.30;99.90;;;;;;4918876;29;20418;-85
2022/04/22 01:34:52;;;;;;;1.10;0.90;;;9.30;99.90;;;;;;4935176;29;20406;-86
2022/04/22 01:37:20;;;;;;;1.45;0.90;;;9.20;99.90;;;;;;4919305;29;20400;-85
2022/04/22 01:39:48;;;;;;;1.10;0.80;;;9.20;99.90;;;;;;4900960;29;20486;-86
2022/04/22 01:42:18;;;;;;;0.77;0.65;;;9.10;99.90;;;;;;4900332;29;20451;-87
2022/04/22 01:44:47;;;;;;;1.27;0.70;;;9.00;99.90;;;;;;4902151;29;20414;-87
2022/04/22 01:47:14;;;;;;;0.87;0.70;;;9.10;99.90;;;;;;4919082;29;20399;-86
2022/04/22 01:49:43;;;;;;;1.83;0.60;;;9.00;99.90;;;;;;4936400;29;20492;-86
2022/04/22 01:52:11;;;;;;;1.25;0.60;;;9.00;99.90;;;;;;4918684;29;20931;-86
2022/04/22 01:54:38;;;;;;;2.60;0.70;;;8.90;99.90;;;;;;4936087;29;20523;-86
2022/04/22 01:57:06;;;;;;;1.38;0.70;;;8.90;99.90;;;;;;4918796;29;20485;-86
2022/04/22 01:59:34;;;;;;;0.77;0.68;;;8.80;99.90;;;;;;4918365;29;20455;-87
2022/04/22 02:02:02;;;;;;;2.40;0.50;;;8.70;99.90;;;;;;4936202;29;20416;-87
2022/04/22 02:04:30;;;;;;;1.60;0.67;;;8.70;99.90;;;;;;4918959;29;20490;-86
2022/04/22 02:06:59;;;;;;;1.02;0.50;;;8.60;99.90;;;;;;4936073;29;20453;-86
2022/04/22 02:09:27;;;;;;;1.30;0.55;;;8.50;99.90;;;;;;4918873;29;20401;-86
2022/04/22 02:11:56;;;;;;;1.58;0.52;;;8.50;99.90;;;;;;4935804;29;20398;-85
2022/04/22 02:14:25;;;;;;;1.67;0.60;;;8.40;99.90;;;;;;4902862;29;20972;-86
2022/04/22 02:16:53;;;;;;;1.60;0.60;;;8.40;99.90;;;;;;4934589;29;20402;-86
2022/04/22 02:19:21;;;;;;;1.92;0.80;;;8.40;99.90;;;;;;4935550;29;20424;-86
2022/04/22 02:21:52;;;;;;;0.95;0.80;;;8.40;99.90;;;;;;4918554;29;20412;-86
2022/04/22 02:24:20;;;;;;;1.75;0.90;;;8.30;99.90;;;;;;4902720;29;20398;-86
2022/04/22 02:29:37;;;;;;;1.08;0.90;;;8.20;99.90;;;;;;4918252;29;20892;-86
2022/04/22 02:32:05;;;;;;;1.00;0.90;;;8.10;99.90;;;;;;4935518;29;20413;-85
2022/04/22 02:34:33;;;;;;;1.30;0.90;;;8.10;99.90;;;;;;4918246;29;20798;-86
2022/04/22 02:37:01;;;;;;;2.05;1.00;;;8.20;99.90;;;;;;4937334;29;20451;-84
2022/04/22 02:39:28;;;;;;;1.83;1.10;;;8.20;99.90;;;;;;4921141;29;20411;-86
2022/04/22 02:47:28;;;;;;;119.32;12.20;;;8.10;99.90;;;;;;4937087;29;20405;-85
2022/04/22 02:49:55;;;;;;;2.10;1.13;;;8.20;99.90;;;;;;4937392;29;20804;-86
2022/04/22 02:52:24;;;;;;;118.60;14.00;;;8.10;99.90;;;;;;4936778;29;20495;-86
2022/04/22 02:54:52;;;;;;;43.28;5.97;;;8.00;99.90;;;;;;4933221;29;20972;-85
2022/04/22 02:57:19;;;;;;;71.60;7.30;;;8.00;99.90;;;;;;4930913;29;20460;-86
2022/04/22 02:59:48;;;;;;;5.10;0.95;;;7.90;99.90;;;;;;4901100;29;20461;-86
2022/04/22 03:02:16;;;;;;;122.18;12.27;;;7.90;99.90;;;;;;4913904;29;20403;-85
2022/04/22 03:04:44;;;;;;;104.30;10.82;;;7.80;99.90;;;;;;4914505;29;20466;-85
2022/04/22 03:07:12;;;;;;;1.27;0.85;;;7.80;99.90;;;;;;4898015;29;20779;-85
2022/04/22 03:09:40;;;;;;;125.15;23.40;;;7.80;99.90;;;;;;4895377;29;20588;-85
2022/04/22 03:12:09;;;;;;;145.00;28.70;;;7.70;99.90;;;;;;4895855;29;20401;-86
2022/04/22 03:14:38;;;;;;;150.20;28.30;;;7.60;99.90;;;;;;4912649;29;20494;-85
2022/04/22 03:17:06;;;;;;;99.73;17.60;;;7.50;99.90;;;;;;4901090;29;20402;-85
2022/04/22 03:19:34;;;;;;;138.30;25.80;;;7.50;99.90;;;;;;4915553;29;20407;-84
2022/04/22 03:22:02;;;;;;;203.35;29.92;;;7.60;99.90;;;;;;4915589;29;20396;-85
2022/04/22 03:24:29;;;;;;;123.50;14.43;;;7.50;99.90;;;;;;4915628;29;20431;-85
2022/04/22 03:26:57;;;;;;;366.45;38.13;;;7.50;99.90;;;;;;4915786;29;20406;-86
2022/04/22 03:29:24;;;;;;;198.68;19.13;;;7.40;99.90;;;;;;4915658;29;20503;-86
2022/04/22 03:31:52;;;;;;;83.47;13.48;;;7.30;99.90;;;;;;4915675;29;20883;-86
2022/04/22 03:34:20;;;;;;;180.98;32.92;;;7.30;99.90;;;;;;4915465;29;20434;-86
2022/04/22 03:36:49;;;;;;;340.67;44.03;;;7.30;99.90;;;;;;4935801;29;20398;-83
2022/04/22 03:39:17;;;;;;;49.58;5.40;;;7.20;99.90;;;;;;4937818;29;20826;-85
2022/04/22 03:41:44;;;;;;;271.25;37.03;;;7.20;99.90;;;;;;4936947;29;20504;-85
2022/04/22 03:44:12;;;;;;;119.10;13.77;;;7.20;99.90;;;;;;4938094;29;20401;-86
2022/04/22 03:46:40;;;;;;;77.70;12.10;;;7.10;99.90;;;;;;4936641;29;20416;-85
2022/04/22 03:49:08;;;;;;;211.00;31.10;;;7.10;99.90;;;;;;4921919;29;20402;-85
2022/04/22 03:51:36;;;;;;;184.33;18.93;;;7.00;99.90;;;;;;4918248;29;20498;-84
2022/04/22 03:54:04;;;;;;;232.13;25.50;;;7.10;99.90;;;;;;4917841;29;20912;-85
2022/04/22 03:59:17;;;;;;;373.50;49.53;;;7.00;99.90;;;;;;4919171;29;20403;-85
2022/04/22 04:01:45;;;;;;;18.77;2.10;;;7.10;99.90;;;;;;4917509;29;20487;-85
2022/04/22 04:04:13;;;;;;;128.50;22.50;;;7.00;99.90;;;;;;4917998;29;20530;-84
2022/04/22 04:06:40;;;;;;;197.52;30.85;;;7.00;99.90;;;;;;4933889;29;20777;-84
2022/04/22 04:17:38;;;;;;;6.57;1.77;;;7.00;99.90;;;;;;4915017;29;20822;-84
2022/04/22 04:25:40;;;;;;;212.60;53.03;;;7.00;99.90;;;;;;4908151;29;20401;-84
2022/04/22 04:28:11;;;;;;;304.23;68.72;;;6.90;99.90;;;;;;4914747;29;20415;-85
2022/04/22 04:30:40;;;;;;;3.58;2.03;;;6.90;99.90;;;;;;4918840;29;20750;-85
2022/04/22 04:33:09;;;;;;;109.68;27.27;;;7.00;99.90;;;;;;4936272;29;20442;-86
2022/04/22 04:35:38;;;;;;;21.52;7.55;;;7.00;99.90;;;;;;4930317;29;20438;-85
2022/04/22 04:38:07;;;;;;;7.65;3.72;;;7.00;99.90;;;;;;4922861;29;20411;-85
2022/04/22 04:40:35;;;;;;;100.13;26.52;;;7.10;99.90;;;;;;4919967;29;20417;-85
2022/04/22 04:43:05;;;;;;;94.22;17.98;;;7.20;99.90;;;;;;4898650;29;20445;-86
2022/04/22 04:45:35;;;;;;;3.80;2.70;;;7.20;99.90;;;;;;4926386;29;20399;-85
2022/04/22 04:48:03;;;;;;;447.02;78.38;;;7.10;99.90;;;;;;4915549;29;20475;-86
2022/04/22 04:50:32;;;;;;;225.63;53.27;;;7.10;99.90;;;;;;4917030;29;20403;-85
2022/04/22 04:53:00;;;;;;;173.75;37.75;;;7.20;99.90;;;;;;4918975;29;20796;-84
2022/04/22 04:55:27;;;;;;;29.63;7.33;;;7.30;99.90;;;;;;4925051;29;20413;-85
2022/04/22 04:57:56;;;;;;;75.03;14.90;;;7.20;99.90;;;;;;4920754;29;20399;-84
2022/04/22 05:00:24;;;;;;;475.48;72.60;;;7.30;99.90;;;;;;4911365;29;20457;-85
2022/04/22 05:02:51;;;;;;;375.08;57.97;;;7.20;99.90;;;;;;4917800;29;20431;-84
2022/04/22 05:05:19;;;;;;;299.35;48.08;;;7.20;99.90;;;;;;4923419;29;20402;-85
2022/04/22 05:07:49;;;;;;;246.20;43.72;;;7.30;99.90;;;;;;4935216;29;20429;-84
2022/04/22 05:10:18;;;;;;;368.42;63.78;;;7.40;99.90;;;;;;4925862;29;20411;-85
2022/04/22 05:12:47;;;;;;;128.68;25.52;;;7.30;99.90;;;;;;4903279;29;20417;-86
2022/04/22 05:15:17;;;;;;;222.07;55.30;;;7.30;99.90;;;;;;4908212;29;20945;-87
2022/04/22 05:17:46;;;;;;;343.15;47.20;;;7.40;99.90;;;;;;4925694;29;20981;-87
2022/04/22 05:20:15;;;;;;;148.45;36.00;;;7.40;99.90;;;;;;4936295;29;20405;-87
2022/04/22 05:22:44;;;;;;;404.35;74.03;;;7.40;99.90;;;;;;4935075;29;20398;-86
2022/04/22 05:25:13;;;;;;;183.07;37.03;;;7.40;99.90;;;;;;4936206;29;20905;-87
2022/04/22 05:27:42;;;;;;;159.45;29.77;;;7.40;99.90;;;;;;4935249;29;20395;-87
2022/04/22 05:32:59;;;;;;;199.23;30.10;;;7.40;99.90;;;;;;4926453;29;20392;-85
2022/04/22 05:35:30;;;;;;;271.52;47.78;;;7.50;99.90;;;;;;4916270;29;20403;-87
2022/04/22 05:38:05;;;;;;;452.63;92.43;;;7.50;99.90;;;;;;4905827;29;20425;-87
2022/04/22 05:40:35;;;;;;;598.70;113.10;;;7.50;99.90;;;;;;4913986;29;20427;-86
2022/04/22 05:43:07;;;;;;;163.77;38.53;;;7.50;99.90;;;;;;4888240;29;20402;-87
2022/04/22 05:45:38;;;;;;;246.40;31.27;;;7.50;99.90;;;;;;4897087;29;20409;-84
2022/04/22 05:48:07;;;;;;;602.90;125.47;;;7.50;99.90;;;;;;4910309;29;20468;-87
2022/04/22 05:50:35;;;;;;;4.90;3.00;;;7.60;99.90;;;;;;4914735;29;20443;-85
2022/04/22 05:53:03;;;;;;;212.82;39.65;;;7.70;99.90;;;;;;4913067;29;20465;-87
2022/04/22 05:55:30;;;;;;;64.53;8.18;;;7.70;99.90;;;;;;4904213;29;20407;-86
2022/04/22 05:57:59;;;;;;;236.75;44.83;;;7.70;99.90;;;;;;4916685;29;20471;-85
2022/04/22 06:00:30;;;;;;;201.55;47.60;;;7.70;99.90;;;;;;4915450;29;20818;-86
2022/04/22 06:02:59;;;;;;;425.13;81.65;;;7.80;99.90;;;;;;4916076;29;20491;-87
2022/04/22 06:05:27;;;;;;;171.73;25.55;;;7.80;99.90;;;;;;4911517;29;20397;-88
2022/04/22 06:10:41;;;;;;;103.25;13.20;;;8.00;99.90;;;;;;4902132;29;20465;-86
2022/04/22 06:13:09;;;;;;;74.93;9.97;;;7.90;99.90;;;;;;4934523;29;20398;-87
2022/04/22 06:15:37;;;;;;;4.13;2.30;;;8.00;99.90;;;;;;4934405;29;20433;-86
2022/04/22 06:18:05;;;;;;;236.48;27.80;;;8.10;99.90;;;;;;4935432;29;20398;-85
2022/04/22 06:20:33;;;;;;;150.97;21.90;;;8.10;99.90;;;;;;4934297;29;20417;-85
2022/04/22 06:23:00;;;;;;;495.90;61.55;;;8.10;99.90;;;;;;4935373;29;20421;-86
2022/04/22 06:25:28;;;;;;;486.40;77.33;;;8.10;99.90;;;;;;4934126;29;20406;-87
2022/04/22 06:27:56;;;;;;;253.30;33.53;;;8.10;99.90;;;;;;4935288;29;20398;-87
2022/04/22 06:30:24;;;;;;;588.73;102.47;;;8.20;99.90;;;;;;4935238;29;20433;-86
2022/04/22 06:32:54;;;;;;;251.63;62.30;;;8.20;99.90;;;;;;4932114;29;20399;-88
2022/04/22 06:35:22;;;;;;;463.67;86.50;;;8.30;99.90;;;;;;4914416;29;20503;-87
2022/04/22 06:37:52;;;;;;;534.28;101.55;;;8.30;99.90;;;;;;4902028;29;20396;-86
2022/04/22 06:45:55;;;;;;;231.43;41.60;;;8.40;99.90;;;;;;4914948;29;20400;-86
2022/04/22 06:48:30;;;;;;;556.40;79.97;;;8.40;99.90;;;;;;4914850;29;20404;-88
2022/04/22 06:51:15;;;;;;;505.92;94.65;;;8.50;99.90;;;;;;4915269;29;20486;-86
2022/04/22 06:53:43;;;;;;;31.00;7.55;;;8.60;99.90;;;;;;4902104;29;20429;-87
2022/04/22 06:56:13;;;;;;;155.35;21.23;;;8.60;99.90;;;;;;4917841;29;20410;-86
2022/04/22 06:58:42;;;;;;;623.40;102.57;;;8.70;99.90;;;;;;4935039;29;20464;-86
2022/04/22 07:01:10;;;;;;;434.52;60.55;;;8.70;99.90;;;;;;4917857;29;20414;-87
2022/04/22 07:03:58;;;;;;;346.50;59.93;;;8.70;99.90;;;;;;4917755;29;20781;-86
2022/04/22 07:06:26;;;;;;;121.80;14.73;;;8.80;99.90;;;;;;4917704;29;20401;-87
2022/04/22 07:08:54;;;;;;;454.10;100.70;;;8.90;99.90;;;;;;4934952;29;20398;-88
2022/04/22 07:11:28;;;;;;;104.20;23.65;;;8.90;99.90;;;;;;4917045;29;20579;-87
2022/04/22 07:13:58;;;;;;;565.17;106.57;;;9.00;99.90;;;;;;4935779;29;20453;-88
2022/04/22 07:16:27;;;;;;;283.55;52.00;;;9.00;99.90;;;;;;4917947;29;20398;-87
2022/04/22 07:18:56;;;;;;;684.58;117.72;;;9.00;99.90;;;;;;4934875;29;20398;-87
2022/04/22 07:21:25;;;;;;;339.70;63.15;;;9.10;99.90;;;;;;4917432;29;20500;-87
2022/04/22 07:23:55;;;;;;;17.33;3.90;;;9.20;99.90;;;;;;4934679;29;20401;-85
2022/04/22 07:26:24;;;;;;;332.52;47.42;;;9.20;99.90;;;;;;4904671;29;20512;-87
2022/04/22 07:28:56;;;;;;;99.20;14.57;;;9.20;99.90;;;;;;4907841;29;20762;-87
2022/04/22 07:31:28;;;;;;;429.87;66.67;;;9.30;99.90;;;;;;4903691;29;20411;-86
2022/04/22 07:33:56;;;;;;;333.65;65.38;;;9.40;99.90;;;;;;4922143;29;20399;-87
2022/04/22 07:36:24;;;;;;;344.30;54.33;;;9.50;99.90;;;;;;4913936;29;20427;-86
2022/04/22 07:38:52;;;;;;;501.02;86.18;;;9.50;99.90;;;;;;4933494;29;20402;-87
2022/04/22 07:41:25;;;;;;;177.20;31.33;;;9.50;99.90;;;;;;4917095;29;20410;-86
2022/04/22 07:46:59;;;;;;;872.28;105.97;;;9.50;99.90;;;;;;4912744;29;20412;-87
2022/04/22 07:49:28;;;;;;;94.28;14.80;;;9.60;99.90;;;;;;4934646;29;20389;-87
2022/04/22 07:51:56;;;;;;;544.08;83.25;;;9.60;99.90;;;;;;4917470;29;20406;-86
2022/04/22 07:54:27;;;;;;;308.42;67.70;;;9.70;99.90;;;;;;4933845;29;20421;-88
2022/04/22 07:56:56;;;;;;;531.92;89.78;;;9.70;99.90;;;;;;4917129;29;20825;-87
2022/04/22 07:59:26;;;;;;;497.97;88.83;;;9.80;99.90;;;;;;4917044;29;20530;-86
2022/04/22 08:01:54;;;;;;;282.27;47.53;;;9.80;99.90;;;;;;4934382;29;20493;-86
2022/04/22 08:04:23;;;;;;;249.73;41.50;;;9.80;99.90;;;;;;4917040;29;20402;-85
2022/04/22 08:06:50;;;;;;;37.42;7.68;;;9.90;99.90;;;;;;4917410;29;20396;-88
2022/04/22 08:09:39;;;;;;;299.42;51.03;;;10.00;99.90;;;;;;4917175;29;20402;-86
2022/04/22 08:12:08;;;;;;;112.25;16.05;;;9.90;99.90;;;;;;4934370;29;20809;-87
2022/04/22 08:14:36;;;;;;;52.50;8.50;;;10.00;99.90;;;;;;4934281;29;20479;-87
2022/04/22 08:17:04;;;;;;;837.08;121.60;;;10.00;99.90;;;;;;4898806;29;20410;-87
2022/04/22 08:19:32;;;;;;;87.95;24.55;;;10.20;99.90;;;;;;4905438;29;20420;-87
2022/04/22 08:22:00;;;;;;;204.45;48.45;;;10.20;99.90;;;;;;4918995;29;20912;-86
2022/04/22 08:24:28;;;;;;;421.13;76.70;;;10.20;99.90;;;;;;4936530;29;20405;-87
2022/04/22 08:26:57;;;;;;;13.13;3.80;;;10.30;99.90;;;;;;4920781;29;20428;-87
2022/04/22 08:29:24;;;;;;;660.75;108.90;;;10.40;99.90;;;;;;4938175;29;20486;-88
2022/04/22 08:31:53;;;;;;;507.55;61.20;;;10.40;99.90;;;;;;4920856;29;20394;-87
2022/04/22 08:34:20;;;;;;;291.15;53.65;;;10.40;99.90;;;;;;4920523;29;20402;-87
2022/04/22 08:36:48;;;;;;;673.08;92.30;;;10.40;99.90;;;;;;4939084;29;20393;-87
2022/04/22 08:39:16;;;;;;;246.68;33.95;;;10.50;99.90;;;;;;4938607;29;20402;-88
2022/04/22 08:41:44;;;;;;;387.55;52.42;;;10.50;99.90;;;;;;4938021;29;20768;-87
2022/04/22 08:44:13;;;;;;;174.47;28.77;;;10.60;99.90;;;;;;4936571;29;20441;-87
2022/04/22 08:52:16;;;;;;;603.55;118.30;;;10.80;99.90;;;;;;4937279;29;20398;-87
2022/04/22 08:54:45;;;;;;;83.63;19.65;;;10.90;99.90;;;;;;4936933;29;20402;-87
2022/04/22 08:57:13;;;;;;;629.72;84.18;;;11.00;99.90;;;;;;4937079;29;20548;-87
2022/04/22 08:59:41;;;;;;;286.92;43.72;;;11.10;99.90;;;;;;4919973;29;20402;-87
2022/04/22 09:02:09;;;;;;;458.83;91.45;;;11.10;99.90;;;;;;4919871;29;20524;-86
2022/04/22 09:04:37;;;;;;;479.33;78.03;;;11.20;99.90;;;;;;4920018;29;20429;-86
2022/04/22 09:07:08;;;;;;;350.58;50.75;;;11.20;99.90;;;;;;4936979;29;20738;-88
2022/04/22 09:09:39;;;;;;;527.30;104.60;;;11.20;99.90;;;;;;4904552;29;20485;-88
2022/04/22 09:12:12;;;;;;;531.23;92.50;;;11.10;99.90;;;;;;4935775;29;20814;-88
2022/04/22 09:14:49;;;;;;;188.88;38.08;;;11.30;99.90;;;;;;4937434;29;20405;-89
2022/04/22 09:17:24;;;;;;;231.55;40.35;;;11.30;99.90;;;;;;4938721;29;20495;-86
2022/04/22 09:19:53;;;;;;;246.07;41.93;;;11.20;99.90;;;;;;4928743;29;20411;-87
2022/04/22 09:22:22;;;;;;;290.38;44.20;;;11.20;99.90;;;;;;4946068;29;20579;-87
2022/04/22 09:24:52;;;;;;;101.38;16.60;;;11.30;99.90;;;;;;4955343;29;20487;-88
2022/04/22 09:27:35;;;;;;;451.50;65.05;;;11.30;99.90;;;;;;4938276;29;20471;-88
2022/04/22 09:30:07;;;;;;;234.57;45.50;;;11.20;99.90;;;;;;4938683;29;20388;-88
2022/04/22 09:32:40;;;;;;;1096.43;95.95;;;11.40;99.90;;;;;;4955192;28;20408;-89
2022/04/22 09:35:23;;;;;;;779.22;82.45;;;11.50;99.90;;;;;;4938370;29;20485;-88
2022/04/22 09:43:47;;;;;;;560.78;71.65;;;11.70;99.90;;;;;;4938755;29;20411;-89
2022/04/22 09:46:30;;;;;;;474.33;76.10;;;11.80;99.90;;;;;;4955185;29;20462;-88
2022/04/22 09:49:01;;;;;;;438.52;42.58;;;11.90;99.90;;;;;;4938589;29;20396;-88
2022/04/22 09:51:31;;;;;;;298.77;23.10;;;11.90;99.90;;;;;;4955210;29;20396;-86
2022/04/22 09:54:17;;;;;;;3.40;2.00;;;11.70;99.90;;;;;;4954553;28;20408;-88
2022/04/22 09:56:56;;;;;;;532.13;83.20;;;11.70;99.90;;;;;;4921700;29;20927;-86
2022/04/22 09:59:30;;;;;;;275.27;33.80;;;11.90;99.90;;;;;;4943238;29;20425;-88
2022/04/22 10:02:00;;;;;;;663.33;80.57;;;12.00;99.90;;;;;;4946390;29;20424;-87
2022/04/22 10:04:38;;;;;;;981.83;105.38;;;12.10;99.90;;;;;;4939098;29;20420;-88
2022/04/22 10:07:09;;;;;;;645.43;81.77;;;12.20;99.90;;;;;;4900012;29;20400;-87
2022/04/22 10:09:37;;;;;;;1112.20;171.90;;;12.30;99.90;;;;;;4901567;29;20403;-88
2022/04/22 10:12:09;;;;;;;430.55;76.80;;;12.30;99.90;;;;;;4933857;29;20414;-87
2022/04/22 10:14:42;;;;;;;497.67;73.20;;;12.30;99.90;;;;;;4908122;29;20508;-87
2022/04/22 10:17:11;;;;;;;764.67;111.70;;;12.50;99.90;;;;;;4912509;29;20419;-87
2022/04/22 10:19:42;;;;;;;431.65;62.08;;;12.50;99.90;;;;;;4913896;29;20409;-86
2022/04/22 10:22:11;;;;;;;442.55;54.42;;;12.50;99.90;;;;;;4906697;29;20914;-88
2022/04/22 10:24:41;;;;;;;260.43;44.73;;;12.60;99.90;;;;;;4929028;29;20507;-87
2022/04/22 10:27:10;;;;;;;613.10;100.80;;;12.60;99.90;;;;;;4926243;29;20408;-86
2022/04/22 10:29:41;;;;;;;416.45;86.47;;;12.60;99.90;;;;;;4931812;29;20406;-86
2022/04/22 10:32:12;;;;;;;355.52;41.53;;;12.70;99.90;;;;;;4936424;29;20445;-86
2022/04/22 10:34:42;;;;;;;481.92;71.13;;;12.70;99.90;;;;;;4927319;29;20404;-87
2022/04/22 10:37:20;;;;;;;467.58;73.10;;;12.90;99.90;;;;;;4935365;29;20424;-88
2022/04/22 10:39:53;;;;;;;329.80;45.00;;;13.00;99.90;;;;;;4918627;29;20402;-86
2022/04/22 10:42:30;;;;;;;333.63;43.97;;;13.10;99.90;;;;;;4935179;29;20418;-88
2022/04/22 10:48:21;;;;;;;389.80;52.03;;;13.10;99.90;;;;;;4917934;29;20413;-87
2022/04/22 10:51:00;;;;;;;1161.70;133.85;;;13.10;99.90;;;;;;4935257;29;20457;-88
2022/04/22 10:53:33;;;;;;;274.58;33.58;;;13.30;99.90;;;;;;4929394;29;20410;-88
2022/04/22 10:56:40;;;;;;;719.30;66.57;;;13.40;99.90;;;;;;4917759;29;20401;-86
2022/04/22 10:59:20;;;;;;;397.08;56.00;;;13.50;99.90;;;;;;4875964;29;20403;-87
2022/04/22 11:01:48;;;;;;;1077.82;119.18;;;13.40;99.90;;;;;;4875902;29;20494;-88
2022/04/22 11:04:31;;;;;;;426.23;53.40;;;13.40;99.90;;;;;;4910457;29;20467;-88
2022/04/22 11:06:58;;;;;;;246.93;32.92;;;13.50;99.90;;;;;;4917745;29;20409;-89
2022/04/22 11:09:29;;;;;;;381.55;71.30;;;13.50;99.90;;;;;;4917776;29;20401;-88
2022/04/22 11:11:59;;;;;;;751.03;114.85;;;13.60;99.90;;;;;;4933675;29;20404;-87
2022/04/22 11:14:31;;;;;;;676.75;74.88;;;13.80;99.90;;;;;;4930777;29;20618;-89
2022/04/22 11:17:32;;;;;;;553.28;98.50;;;13.80;99.90;;;;;;4906739;29;20499;-88
2022/04/22 11:20:00;;;;;;;609.85;67.63;;;13.80;99.90;;;;;;4927029;29;20451;-89
2022/04/22 11:22:54;;;;;;;1010.20;129.80;;;14.00;99.90;;;;;;4898720;29;20416;-88
2022/04/22 11:25:25;;;;;;;881.95;108.65;;;13.90;99.90;;;;;;4920329;29;20394;-87
2022/04/22 11:27:57;;;;;;;858.63;106.18;;;14.00;99.90;;;;;;4902517;29;20475;-88
2022/04/22 11:30:28;;;;;;;545.90;89.40;;;14.10;99.90;;;;;;4909937;29;20958;-89
2022/04/22 11:33:19;;;;;;;568.05;78.00;;;14.10;99.90;;;;;;4917021;29;20468;-88
2022/04/22 11:36:01;;;;;;;572.22;91.75;;;14.20;99.90;;;;;;4934452;29;20402;-89
2022/04/22 11:38:31;;;;;;;401.30;51.28;;;14.10;99.90;;;;;;4916901;29;20412;-88
2022/04/22 11:40:58;;;;;;;619.50;113.32;;;14.20;99.90;;;;;;4917499;29;20425;-88
2022/04/22 11:43:32;;;;;;;1017.65;119.25;;;14.30;99.90;;;;;;4917092;29;20501;-87
2022/04/22 11:46:00;;;;;;;477.73;53.83;;;14.30;99.90;;;;;;4933399;29;20453;-88
2022/04/22 11:48:28;;;;;;;511.77;64.00;;;14.40;99.90;;;;;;4917523;29;20405;-89
2022/04/22 11:50:58;;;;;;;837.28;111.32;;;14.50;99.90;;;;;;4934659;29;20480;-89
2022/04/22 11:53:32;;;;;;;215.82;37.65;;;14.70;99.90;;;;;;4934493;29;20437;-89
2022/04/22 11:56:06;;;;;;;579.50;65.13;;;14.70;99.90;;;;;;4917765;29;20401;-89
2022/04/22 11:58:34;;;;;;;541.08;63.10;;;14.80;99.90;;;;;;4921012;29;20408;-90
2022/04/22 12:06:41;;;;;;;623.40;76.93;;;15.00;99.90;;;;;;4924020;29;20447;-88
2022/04/22 12:09:09;;;;;;;905.03;82.95;;;15.20;99.90;;;;;;4922354;29;20398;-89
2022/04/22 12:11:42;;;;;;;745.67;93.95;;;15.10;99.20;;;;;;4904691;29;20449;-88
2022/04/22 12:14:12;;;;;;;473.50;45.17;;;15.10;99.90;;;;;;4892599;29;20477;-88
2022/04/22 12:16:41;;;;;;;506.05;69.03;;;15.30;99.90;;;;;;4911884;29;20403;-88
2022/04/22 12:19:11;;;;;;;820.00;110.65;;;15.30;99.30;;;;;;4914080;29;20491;-87
2022/04/22 12:21:39;;;;;;;251.25;31.83;;;15.10;99.90;;;;;;4930332;29;20420;-89
2022/04/22 12:24:06;;;;;;;638.08;83.82;;;15.20;99.90;;;;;;4914540;29;20558;-90
2022/04/22 12:26:44;;;;;;;556.30;66.78;;;15.40;99.90;;;;;;4909029;29;20411;-87
2022/04/22 12:29:14;;;;;;;82.88;8.07;;;15.00;99.90;;;;;;4952668;29;20518;-88
2022/04/22 12:31:55;;;;;;;975.13;148.02;;;15.00;99.90;;;;;;4942225;29;20405;-88
2022/04/22 12:34:31;;;;;;;1048.63;167.15;;;14.90;99.90;;;;;;4934529;29;20483;-87
2022/04/22 12:37:01;;;;;;;713.25;101.72;;;14.90;99.90;;;;;;4934855;29;20407;-88
2022/04/22 12:39:39;;;;;;;383.70;48.60;;;14.90;99.30;;;;;;4913034;29;20395;-88
2022/04/22 12:42:17;;;;;;;671.88;93.82;;;14.70;99.90;;;;;;4942654;29;20880;-88
2022/04/22 12:53:50;;;;;;;981.10;132.40;;;15.30;99.20;;;;;;4910553;29;20504;-89
2022/04/22 12:56:24;;;;;;;866.38;111.53;;;15.60;99.90;;;;;;4910747;29;20471;-89
2022/04/22 12:58:55;;;;;;;347.05;42.35;;;15.80;99.90;;;;;;4926219;29;20466;-89
2022/04/22 13:01:38;;;;;;;795.17;97.40;;;15.70;98.90;;;;;;4925594;29;20411;-90
2022/04/22 13:04:07;;;;;;;276.60;28.40;;;15.70;99.90;;;;;;4922916;29;20414;-89
2022/04/22 13:06:42;;;;;;;850.58;108.80;;;15.70;99.60;;;;;;4927381;29;20423;-89
2022/04/22 13:09:12;;;;;;;308.40;43.53;;;15.60;98.30;;;;;;4926076;29;20409;-89
2022/04/22 13:11:40;;;;;;;453.48;76.18;;;15.60;99.50;;;;;;4941533;29;20401;-89
2022/04/22 13:14:09;;;;;;;760.58;88.97;;;15.70;99.30;;;;;;4929064;29;20422;-87
2022/04/22 13:16:36;;;;;;;234.38;26.17;;;15.90;99.20;;;;;;4926680;29;20403;-88
2022/04/22 13:19:14;;;;;;;1002.70;130.97;;;16.00;98.40;;;;;;4924785;29;20895;-88
2022/04/22 13:21:42;;;;;;;589.85;73.85;;;16.00;99.80;;;;;;4925312;29;20786;-89
2022/04/22 13:24:09;;;;;;;102.40;10.87;;;16.20;98.80;;;;;;4926606;29;20497;-88
2022/04/22 13:26:38;;;;;;;959.38;111.03;;;16.10;98.80;;;;;;4924997;29;20398;-89
2022/04/22 13:29:06;;;;;;;972.53;145.45;;;16.20;98.30;;;;;;4923489;29;20389;-89
2022/04/22 13:31:36;;;;;;;562.92;76.13;;;16.30;99.10;;;;;;4916794;29;20427;-89
2022/04/22 13:34:04;;;;;;;651.30;78.53;;;16.50;98.90;;;;;;4916428;29;20399;-89
2022/04/22 13:36:36;;;;;;;335.43;34.10;;;16.60;98.30;;;;;;4916254;29;20408;-89
2022/04/22 13:39:05;;;;;;;423.42;36.13;;;16.40;98.10;;;;;;4891880;29;20551;-90
2022/04/22 13:41:33;;;;;;;711.60;88.10;;;16.50;98.20;;;;;;4914176;29;20508;-90
2022/04/22 13:44:01;;;;;;;291.98;34.78;;;16.60;98.20;;;;;;4918132;29;20473;-89
2022/04/22 13:54:30;;;;;;;874.58;69.05;;;16.50;97.90;;;;;;4931857;29;20463;-87
2022/04/22 13:56:57;;;;;;;100.63;8.43;;;16.30;96.00;;;;;;4935435;29;20486;-87
2022/04/22 13:59:27;;;;;;;134.93;25.20;;;15.60;95.60;;;;;;4934735;29;20406;-88
2022/04/22 14:01:54;;;;;;;673.15;85.50;;;15.40;96.60;;;;;;4934200;29;20400;-86
2022/04/22 14:04:22;;;;;;;759.15;86.40;;;15.30;95.90;;;;;;4941707;29;20496;-88
2022/04/22 14:06:50;;;;;;;606.38;65.90;;;15.10;95.70;;;;;;4919758;29;20394;-89